KVEL

Vernal Regional Airport

Vernal, Utah, USA
KVEL 201720Z 2018/2118 04010KT P6SM VCSH BKN035 OVC045 FM210000 04005KT P6SM VCSH BKN035 OVC045 FM210300 VRB03KT P6SM BKN040 BKN070 FM211000 35005KT P6SM FEW060 SCT090
Issued Valid From Valid To
Apr-20 @ 17:20 UTC
(an hour ago)
Apr-20 @ 18:00 UTC
(33 minutes ago)
Apr-21 @ 18:00 UTC
(in 23 hours)
Apr-20 @ 18:00 to Apr-21 @ 00:00
KVEL 201720Z 2018/2118 04010KT P6SM VCSH BKN035 OVC045
Wind Visibility Clouds
40° at 10 knots Greater than 6 miles
  • Broken at 3,500' AGL
  • Overcast at 4,500' AGL
From Apr-21 @ 00:00 to Apr-21 @ 03:00
FM210000 04005KT P6SM VCSH BKN035 OVC045
Wind Visibility Clouds
40° at 5 knots Greater than 6 miles
  • Broken at 3,500' AGL
  • Overcast at 4,500' AGL
From Apr-21 @ 03:00 to Apr-21 @ 10:00
FM210300 VRB03KT P6SM BKN040 BKN070
Wind Visibility Clouds
Variable at 3 knots Greater than 6 miles
  • Broken at 4,000' AGL
  • Broken at 7,000' AGL
From Apr-21 @ 10:00 to Apr-21 @ 18:00
FM211000 35005KT P6SM FEW060 SCT090
Wind Visibility Clouds
350° at 5 knots Greater than 6 miles
  • Few at 6,000' AGL
  • Scattered at 9,000' AGL
KVEL 201720Z 2018/2118 04010KT P6SM VCSH BKN035 OVC045 FM210000 04005KT P6SM VCSH BKN035 OVC045 FM210300 VRB03KT P6SM BKN040 BKN070 FM211000 35005KT P6SM FEW060 SCT090
Issued Apr-20 @ 17:20 UTC
(an hour ago)
Valid From Apr-20 @ 18:00 UTC
(33 minutes ago)
Valid To Apr-21 @ 18:00 UTC
(in 23 hours)
Apr-20 @ 18:00 - Apr-21 @ 00:00
Wind Visibility
40° at 10 knots Greater than 6 miles
Clouds
  • Broken at 3,500' AGL
  • Overcast at 4,500' AGL
From Apr-21 @ 00:00 - Apr-21 @ 03:00
Wind Visibility
40° at 5 knots Greater than 6 miles
Clouds
  • Broken at 3,500' AGL
  • Overcast at 4,500' AGL
From Apr-21 @ 03:00 - Apr-21 @ 10:00
Wind Visibility
Variable at 3 knots Greater than 6 miles
Clouds
  • Broken at 4,000' AGL
  • Broken at 7,000' AGL
From Apr-21 @ 10:00 - Apr-21 @ 18:00
Wind Visibility
350° at 5 knots Greater than 6 miles
Clouds
  • Few at 6,000' AGL
  • Scattered at 9,000' AGL